createdAt,value
2018-06-05T00:00:06.724Z,998.82
2018-06-05T00:01:06.742Z,998.81
2018-06-05T00:02:06.763Z,998.78
2018-06-05T00:03:06.787Z,998.73
2018-06-05T00:04:06.808Z,998.76
2018-06-05T00:05:06.842Z,998.75
2018-06-05T00:06:06.852Z,998.70
2018-06-05T00:07:06.866Z,998.70
2018-06-05T00:08:06.890Z,998.70
2018-06-05T00:09:06.923Z,998.69
2018-06-05T00:10:06.928Z,998.69
2018-06-05T00:11:06.949Z,998.68
2018-06-05T00:12:06.973Z,998.71
2018-06-05T00:13:06.995Z,998.69
2018-06-05T00:14:07.015Z,998.66
2018-06-05T00:15:07.031Z,998.65
2018-06-05T00:16:07.089Z,998.65
2018-06-05T00:17:07.116Z,998.65
2018-06-05T00:18:07.095Z,998.65
2018-06-05T00:19:07.117Z,998.61
2018-06-05T00:20:07.147Z,998.66
2018-06-05T00:21:07.170Z,998.60
2018-06-05T00:22:07.186Z,998.61
2018-06-05T00:23:07.208Z,998.61
2018-06-05T00:24:07.228Z,998.60
2018-06-05T00:25:07.245Z,998.62
2018-06-05T00:26:07.275Z,998.62
2018-06-05T00:27:07.300Z,998.63
2018-06-05T00:28:07.312Z,998.62
2018-06-05T00:29:07.349Z,998.61
2018-06-05T00:30:07.369Z,998.62
2018-06-05T00:31:07.376Z,998.63
2018-06-05T00:32:07.391Z,998.60
2018-06-05T00:33:07.450Z,998.62
2018-06-05T00:34:07.457Z,998.64
2018-06-05T00:35:07.472Z,998.62
2018-06-05T00:36:07.480Z,998.60
2018-06-05T00:37:07.505Z,998.62
2018-06-05T00:38:07.560Z,998.66
2018-06-05T00:39:07.538Z,998.62
2018-06-05T00:40:07.568Z,998.64
2018-06-05T00:41:07.576Z,998.62
2018-06-05T00:42:07.627Z,998.63
2018-06-05T00:43:07.619Z,998.62
2018-06-05T00:44:07.641Z,998.65
2018-06-05T00:45:07.660Z,998.65
2018-06-05T00:46:07.681Z,998.63
2018-06-05T00:47:07.726Z,998.68
2018-06-05T00:48:07.736Z,998.66
2018-06-05T00:49:07.755Z,998.68
2018-06-05T00:50:07.778Z,998.61
2018-06-05T00:51:07.793Z,998.62
2018-06-05T00:52:07.817Z,998.63
2018-06-05T00:53:07.835Z,998.62
2018-06-05T00:54:07.864Z,998.60
2018-06-05T00:55:07.886Z,998.58
2018-06-05T00:56:07.900Z,998.59
2018-06-05T00:57:07.939Z,998.60
2018-06-05T00:58:07.951Z,998.58
2018-06-05T00:59:07.992Z,998.56
2018-06-05T01:00:08.001Z,998.55
2018-06-05T01:01:07.999Z,998.58
2018-06-05T01:02:08.024Z,998.57
2018-06-05T01:03:08.053Z,998.56
2018-06-05T01:04:08.065Z,998.59
2018-06-05T01:05:08.098Z,998.56
2018-06-05T01:06:08.114Z,998.57
2018-06-05T01:07:08.131Z,998.59
2018-06-05T01:08:08.147Z,998.58
2018-06-05T01:09:08.171Z,998.60
2018-06-05T01:10:08.187Z,998.62
2018-06-05T01:11:08.222Z,998.64
2018-06-05T01:12:08.241Z,998.61
2018-06-05T01:13:08.256Z,998.65
2018-06-05T01:14:08.297Z,998.64
2018-06-05T01:15:08.324Z,998.65
2018-06-05T01:16:08.338Z,998.64
2018-06-05T01:17:08.342Z,998.63
2018-06-05T01:18:08.367Z,998.66
2018-06-05T01:19:08.385Z,998.64
2018-06-05T01:20:08.414Z,998.68
2018-06-05T01:21:08.426Z,998.62
2018-06-05T01:22:08.451Z,998.63
2018-06-05T01:23:08.491Z,998.65
2018-06-05T01:24:08.492Z,998.59
2018-06-05T01:25:08.537Z,998.55
2018-06-05T01:26:08.530Z,998.59
2018-06-05T01:27:08.551Z,998.57
2018-06-05T01:28:08.581Z,998.60
2018-06-05T01:29:08.610Z,998.61
2018-06-05T01:30:08.703Z,998.56
2018-06-05T01:31:08.643Z,998.55
2018-06-05T01:32:08.661Z,998.52
2018-06-05T01:33:08.681Z,998.52
2018-06-05T01:34:08.711Z,998.49
2018-06-05T01:35:08.733Z,998.54
2018-06-05T01:36:08.745Z,998.56
2018-06-05T01:37:08.776Z,998.52
2018-06-05T01:38:08.791Z,998.53
2018-06-05T01:39:08.817Z,998.54
2018-06-05T01:40:08.839Z,998.56
2018-06-05T01:41:08.861Z,998.55
2018-06-05T01:42:08.874Z,998.53
2018-06-05T01:43:08.886Z,998.51
2018-06-05T01:44:08.914Z,998.48
2018-06-05T01:45:08.934Z,998.43
2018-06-05T01:46:08.961Z,998.46
2018-06-05T01:47:08.989Z,998.46
2018-06-05T01:48:09.012Z,998.44
2018-06-05T01:49:09.037Z,998.42
2018-06-05T01:50:09.058Z,998.50
2018-06-05T01:51:09.085Z,998.42
2018-06-05T01:52:09.082Z,998.41
2018-06-05T01:53:09.105Z,998.43
2018-06-05T01:54:09.119Z,998.39
2018-06-05T01:55:09.159Z,998.39
2018-06-05T01:56:09.184Z,998.39
2018-06-05T01:57:09.219Z,998.36
2018-06-05T01:58:09.218Z,998.35
2018-06-05T01:59:09.258Z,998.35
2018-06-05T02:00:09.281Z,998.36
2018-06-05T02:01:09.273Z,998.33
2018-06-05T02:02:09.290Z,998.27
2018-06-05T02:03:09.326Z,998.27
2018-06-05T02:04:09.337Z,998.29
2018-06-05T02:05:09.356Z,998.31
2018-06-05T02:06:09.386Z,998.29
2018-06-05T02:07:09.396Z,998.27
2018-06-05T02:08:09.445Z,998.27
2018-06-05T02:09:09.440Z,998.28
2018-06-05T02:10:09.457Z,998.29
2018-06-05T02:11:09.502Z,998.26
2018-06-05T02:12:09.499Z,998.29
2018-06-05T02:13:09.522Z,998.28
2018-06-05T02:14:09.547Z,998.28
2018-06-05T02:15:09.573Z,998.27
2018-06-05T02:16:09.583Z,998.29
2018-06-05T02:17:09.619Z,998.33
2018-06-05T02:18:09.628Z,998.31
2018-06-05T02:19:09.648Z,998.34
2018-06-05T02:20:09.662Z,998.29
2018-06-05T02:21:09.687Z,998.34
2018-06-05T02:22:09.722Z,998.32
2018-06-05T02:23:09.747Z,998.34
2018-06-05T02:24:09.753Z,998.31
2018-06-05T02:25:09.772Z,998.32
2018-06-05T02:26:09.792Z,998.34
2018-06-05T02:27:09.814Z,998.35
2018-06-05T02:28:09.849Z,998.37
2018-06-05T02:29:09.882Z,998.34
2018-06-05T02:30:09.911Z,998.33
2018-06-05T02:31:09.905Z,998.33
2018-06-05T02:32:09.943Z,998.29
2018-06-05T02:33:09.966Z,998.29
2018-06-05T02:34:09.970Z,998.29
2018-06-05T02:35:09.988Z,998.34
2018-06-05T02:36:10.005Z,998.35
2018-06-05T02:37:10.025Z,998.34
2018-06-05T02:38:10.063Z,998.35
2018-06-05T02:39:10.075Z,998.30
2018-06-05T02:40:10.093Z,998.31
2018-06-05T02:41:10.112Z,998.32
2018-06-05T02:42:10.128Z,998.30
2018-06-05T02:43:10.182Z,998.28
2018-06-05T02:44:10.178Z,998.30
2018-06-05T02:45:10.190Z,998.35
2018-06-05T02:46:10.228Z,998.33
2018-06-05T02:47:10.235Z,998.30
2018-06-05T02:48:10.258Z,998.29
2018-06-05T02:49:10.282Z,998.29
2018-06-05T02:50:10.300Z,998.28
2018-06-05T02:51:10.368Z,998.34
2018-06-05T02:52:10.342Z,998.34
2018-06-05T02:53:10.361Z,998.31
2018-06-05T02:54:10.416Z,998.33
2018-06-05T02:55:10.407Z,998.37
2018-06-05T02:56:10.422Z,998.40
2018-06-05T02:57:10.445Z,998.41
2018-06-05T02:58:10.467Z,998.44
2018-06-05T02:59:10.488Z,998.44
2018-06-05T03:00:10.510Z,998.48
2018-06-05T03:01:10.531Z,998.45
2018-06-05T03:02:10.560Z,998.48
2018-06-05T03:03:10.571Z,998.45
2018-06-05T03:04:10.607Z,998.47
2018-06-05T03:05:10.612Z,998.50
2018-06-05T03:06:10.630Z,998.46
2018-06-05T03:07:10.644Z,998.49
2018-06-05T03:08:10.680Z,998.49
2018-06-05T03:09:10.691Z,998.53
2018-06-05T03:10:10.711Z,998.55
2018-06-05T03:11:10.744Z,998.56
2018-06-05T03:12:10.777Z,998.56
2018-06-05T03:13:10.774Z,998.60
2018-06-05T03:14:10.822Z,998.62
2018-06-05T03:15:10.826Z,998.62
2018-06-05T03:16:10.848Z,998.62
2018-06-05T03:17:10.862Z,998.63
2018-06-05T03:18:10.887Z,998.64
2018-06-05T03:19:10.896Z,998.66
2018-06-05T03:20:10.919Z,998.66
2018-06-05T03:21:10.942Z,998.65
2018-06-05T03:22:10.958Z,998.68
2018-06-05T03:23:10.997Z,998.66
2018-06-05T03:24:11.001Z,998.63
2018-06-05T03:25:11.034Z,998.65
2018-06-05T03:26:11.042Z,998.62
2018-06-05T03:27:11.065Z,998.66
2018-06-05T03:28:11.086Z,998.68
2018-06-05T03:29:11.109Z,998.69
2018-06-05T03:30:11.149Z,998.67
2018-06-05T03:31:11.153Z,998.69
2018-06-05T03:32:11.167Z,998.72
2018-06-05T03:33:11.189Z,998.72
2018-06-05T03:34:11.210Z,998.74
2018-06-05T03:35:11.237Z,998.72
2018-06-05T03:36:11.257Z,998.77
2018-06-05T03:37:11.278Z,998.80
2018-06-05T03:38:11.296Z,998.77
2018-06-05T03:39:11.314Z,998.78
2018-06-05T03:40:11.346Z,998.76
2018-06-05T03:41:11.356Z,998.78
2018-06-05T03:42:11.384Z,998.80
2018-06-05T03:43:11.407Z,998.83
2018-06-05T03:44:11.417Z,998.84
2018-06-05T03:45:11.436Z,998.83
2018-06-05T03:46:11.459Z,998.84
2018-06-05T03:47:11.476Z,998.83
2018-06-05T03:48:11.496Z,998.85
2018-06-05T03:49:11.517Z,998.88
2018-06-05T03:50:11.570Z,998.87
2018-06-05T03:51:11.623Z,998.86
2018-06-05T03:52:11.611Z,998.90
2018-06-05T03:53:11.606Z,998.91
2018-06-05T03:54:11.637Z,998.92
2018-06-05T03:55:11.644Z,998.96
2018-06-05T03:56:11.662Z,998.94
2018-06-05T03:57:11.740Z,998.91
2018-06-05T03:58:11.704Z,998.89
2018-06-05T03:59:11.725Z,998.89
2018-06-05T04:00:11.766Z,998.93
2018-06-05T04:01:11.764Z,998.90
2018-06-05T04:02:11.789Z,998.93
2018-06-05T04:03:11.811Z,998.95
2018-06-05T04:04:11.827Z,998.92
2018-06-05T04:05:11.849Z,998.94
2018-06-05T04:06:11.868Z,998.94
2018-06-05T04:07:11.895Z,998.98
2018-06-05T04:08:11.917Z,999.00
2018-06-05T04:09:11.941Z,999.01
2018-06-05T04:10:11.948Z,999.04
2018-06-05T04:11:11.969Z,999.06
2018-06-05T04:12:11.995Z,999.04
2018-06-05T04:13:12.033Z,999.05
2018-06-05T04:14:12.045Z,999.05
2018-06-05T04:15:12.056Z,999.04
2018-06-05T04:16:12.079Z,999.09
2018-06-05T04:17:12.117Z,999.10
2018-06-05T04:18:12.126Z,999.08
2018-06-05T04:19:12.140Z,999.11
2018-06-05T04:20:12.164Z,999.12
2018-06-05T04:21:12.198Z,999.10
2018-06-05T04:22:12.198Z,999.13
2018-06-05T04:23:12.233Z,999.10
2018-06-05T04:24:12.238Z,999.12
2018-06-05T04:25:12.261Z,999.14
2018-06-05T04:26:12.284Z,999.14
2018-06-05T04:27:12.353Z,999.13
2018-06-05T04:28:12.355Z,999.14
2018-06-05T04:29:12.344Z,999.15
2018-06-05T04:30:12.378Z,999.15
2018-06-05T04:31:12.393Z,999.16
2018-06-05T04:32:12.415Z,999.16
2018-06-05T04:33:12.437Z,999.18
2018-06-05T04:34:12.453Z,999.20
2018-06-05T04:35:12.467Z,999.18
2018-06-05T04:36:12.530Z,999.18
2018-06-05T04:37:12.525Z,999.17
2018-06-05T04:38:12.535Z,999.21
2018-06-05T04:39:12.557Z,999.22
2018-06-05T04:40:12.588Z,999.23
2018-06-05T04:41:12.597Z,999.22
2018-06-05T04:42:12.622Z,999.28
2018-06-05T04:43:12.630Z,999.27
2018-06-05T04:44:12.655Z,999.27
2018-06-05T04:45:12.677Z,999.29
2018-06-05T04:46:12.695Z,999.28
2018-06-05T04:47:12.713Z,999.28
2018-06-05T04:48:12.740Z,999.23
2018-06-05T04:49:12.763Z,999.22
2018-06-05T04:50:12.785Z,999.23
2018-06-05T04:51:12.805Z,999.22
2018-06-05T04:52:12.836Z,999.23
2018-06-05T04:53:12.884Z,999.25
2018-06-05T04:54:12.859Z,999.23
2018-06-05T04:55:12.878Z,999.26
2018-06-05T04:56:12.901Z,999.26
2018-06-05T04:57:12.920Z,999.23
2018-06-05T04:58:12.937Z,999.21
2018-06-05T04:59:12.984Z,999.20
2018-06-05T05:00:12.980Z,999.23
2018-06-05T05:01:13.000Z,999.23
2018-06-05T05:02:13.021Z,999.21
2018-06-05T05:03:13.043Z,999.24
2018-06-05T05:04:13.063Z,999.25
2018-06-05T05:05:13.119Z,999.19
2018-06-05T05:06:13.111Z,999.18
2018-06-05T05:07:13.122Z,999.20
2018-06-05T05:08:13.143Z,999.20
2018-06-05T05:09:13.165Z,999.23
2018-06-05T05:10:13.191Z,999.23
2018-06-05T05:11:13.211Z,999.22
2018-06-05T05:12:13.224Z,999.28
2018-06-05T05:13:13.248Z,999.27
2018-06-05T05:14:13.267Z,999.28
2018-06-05T05:15:13.293Z,999.30
2018-06-05T05:16:13.326Z,999.29
2018-06-05T05:17:13.351Z,999.34
2018-06-05T05:18:13.361Z,999.29
2018-06-05T05:19:13.379Z,999.30
2018-06-05T05:20:13.397Z,999.29
2018-06-05T05:21:13.427Z,999.32
2018-06-05T05:22:13.444Z,999.33
2018-06-05T05:23:13.463Z,999.34
2018-06-05T05:24:13.480Z,999.33
2018-06-05T05:25:13.506Z,999.37
2018-06-05T05:26:13.528Z,999.39
2018-06-05T05:27:13.544Z,999.38
2018-06-05T05:28:13.563Z,999.40
2018-06-05T05:29:13.595Z,999.41
2018-06-05T05:30:13.606Z,999.41
2018-06-05T05:31:13.622Z,999.38
2018-06-05T05:32:13.661Z,999.41
2018-06-05T05:33:13.665Z,999.35
2018-06-05T05:34:13.697Z,999.40
2018-06-05T05:35:13.729Z,999.37
2018-06-05T05:36:13.736Z,999.36
2018-06-05T05:37:13.746Z,999.42
2018-06-05T05:38:13.772Z,999.42
2018-06-05T05:39:13.831Z,999.46
2018-06-05T05:40:13.829Z,999.49
2018-06-05T05:41:13.837Z,999.49
2018-06-05T05:42:13.858Z,999.55
2018-06-05T05:43:13.901Z,999.48
2018-06-05T05:44:13.895Z,999.48
2018-06-05T05:45:13.927Z,999.45
2018-06-05T05:46:13.942Z,999.46
2018-06-05T05:47:13.961Z,999.46
2018-06-05T05:48:13.981Z,999.44
2018-06-05T05:49:14.023Z,999.45
2018-06-05T05:50:14.039Z,999.48
2018-06-05T05:51:14.067Z,999.45
2018-06-05T05:52:14.071Z,999.47
2018-06-05T05:53:14.109Z,999.49
2018-06-05T05:54:14.110Z,999.49
2018-06-05T05:55:14.149Z,999.52
2018-06-05T05:56:14.152Z,999.54
2018-06-05T05:57:14.186Z,999.50
2018-06-05T05:58:14.201Z,999.51
2018-06-05T05:59:14.217Z,999.54
2018-06-05T06:00:14.264Z,999.54
2018-06-05T06:01:14.255Z,999.50
2018-06-05T06:02:14.391Z,999.51
2018-06-05T06:03:14.296Z,999.55
2018-06-05T06:04:14.318Z,999.52
2018-06-05T06:05:14.336Z,999.53
2018-06-05T06:06:14.363Z,999.56
2018-06-05T06:07:14.396Z,999.58
2018-06-05T06:08:14.410Z,999.57
2018-06-05T06:09:14.431Z,999.57
2018-06-05T06:10:14.470Z,999.58
2018-06-05T06:11:14.470Z,999.57
2018-06-05T06:12:14.493Z,999.56
2018-06-05T06:13:14.521Z,999.60
2018-06-05T06:14:14.531Z,999.60
2018-06-05T06:15:14.568Z,999.60
2018-06-05T06:16:14.584Z,999.58
2018-06-05T06:17:14.614Z,999.63
2018-06-05T06:18:14.619Z,999.67
2018-06-05T06:19:14.638Z,999.69
2018-06-05T06:20:14.658Z,999.72
2018-06-05T06:21:14.677Z,999.69
2018-06-05T06:22:14.699Z,999.69
2018-06-05T06:23:14.721Z,999.70
2018-06-05T06:24:14.759Z,999.72
2018-06-05T06:25:14.816Z,999.72
2018-06-05T06:26:14.784Z,999.67
2018-06-05T06:27:14.805Z,999.69
2018-06-05T06:28:14.837Z,999.68
2018-06-05T06:29:14.853Z,999.69
2018-06-05T06:30:14.864Z,999.69
2018-06-05T06:31:14.903Z,999.71
2018-06-05T06:32:14.906Z,999.68
2018-06-05T06:33:14.929Z,999.70
2018-06-05T06:34:14.954Z,999.68
2018-06-05T06:35:14.973Z,999.74
2018-06-05T06:36:14.998Z,999.76
2018-06-05T06:37:15.012Z,999.76
2018-06-05T06:38:15.029Z,999.74
2018-06-05T06:39:15.083Z,999.81
2018-06-05T06:40:15.082Z,999.82
2018-06-05T06:41:15.111Z,999.78
2018-06-05T06:42:15.118Z,999.83
2018-06-05T06:43:15.146Z,999.83
2018-06-05T06:44:15.162Z,999.83
2018-06-05T06:45:15.185Z,999.87
2018-06-05T06:46:15.204Z,999.82
2018-06-05T06:47:15.219Z,999.86
2018-06-05T06:48:15.240Z,999.84
2018-06-05T06:49:15.261Z,999.86
2018-06-05T06:50:15.275Z,999.90
2018-06-05T06:51:15.304Z,999.88
2018-06-05T06:52:15.324Z,999.89
2018-06-05T06:53:15.344Z,999.90
2018-06-05T06:54:15.362Z,999.91
2018-06-05T06:55:15.406Z,999.92
2018-06-05T06:56:15.418Z,999.93
2018-06-05T06:57:15.429Z,999.93
2018-06-05T06:58:15.450Z,999.95
2018-06-05T06:59:15.510Z,999.95
2018-06-05T07:00:15.501Z,999.92
2018-06-05T07:01:15.511Z,999.96
2018-06-05T07:02:15.578Z,999.96
2018-06-05T07:03:15.553Z,999.97
2018-06-05T07:04:15.569Z,999.95
2018-06-05T07:05:15.596Z,999.93
2018-06-05T07:06:15.610Z,999.93
2018-06-05T07:07:15.629Z,999.94
2018-06-05T07:08:15.664Z,999.94
2018-06-05T07:09:15.681Z,999.93
2018-06-05T07:10:15.704Z,999.96
2018-06-05T07:11:15.721Z,999.96
2018-06-05T07:12:15.750Z,999.96
2018-06-05T07:13:15.764Z,999.93
2018-06-05T07:14:15.773Z,999.96
2018-06-05T07:15:15.797Z,1000.00
2018-06-05T07:16:15.817Z,1000.00
2018-06-05T07:17:15.839Z,1000.03
2018-06-05T07:18:15.892Z,1000.05
2018-06-05T07:19:15.888Z,1000.04
2018-06-05T07:20:15.902Z,1000.08
2018-06-05T07:21:15.929Z,1000.07
2018-06-05T07:22:15.969Z,1000.12
2018-06-05T07:23:15.987Z,1000.13
2018-06-05T07:24:15.989Z,1000.14
2018-06-05T07:25:16.015Z,1000.16
2018-06-05T07:26:16.041Z,1000.15
2018-06-05T07:27:16.044Z,1000.15
2018-06-05T07:28:16.073Z,1000.15
2018-06-05T07:29:16.092Z,1000.17
2018-06-05T07:30:16.182Z,1000.19
2018-06-05T07:31:16.160Z,1000.17
2018-06-05T07:32:16.159Z,1000.20
2018-06-05T07:33:16.203Z,1000.15
2018-06-05T07:34:16.190Z,1000.16
2018-06-05T07:35:16.212Z,1000.17
2018-06-05T07:36:16.272Z,1000.16
2018-06-05T07:37:16.253Z,1000.18
2018-06-05T07:38:16.279Z,1000.18
2018-06-05T07:39:16.316Z,1000.15
2018-06-05T07:40:16.317Z,1000.18
2018-06-05T07:41:16.335Z,1000.19
2018-06-05T07:42:16.360Z,1000.22
2018-06-05T07:43:16.388Z,1000.20
2018-06-05T07:44:16.441Z,1000.21
2018-06-05T07:45:16.421Z,1000.24
2018-06-05T07:46:16.446Z,1000.23
2018-06-05T07:47:16.463Z,1000.24
2018-06-05T07:48:16.490Z,1000.26
2018-06-05T07:49:16.510Z,1000.24
2018-06-05T07:50:16.561Z,1000.25
2018-06-05T07:51:16.547Z,1000.18
2018-06-05T07:52:16.573Z,1000.23
2018-06-05T07:53:16.596Z,1000.23
2018-06-05T07:54:16.607Z,1000.22
2018-06-05T07:55:16.631Z,1000.24
2018-06-05T07:56:16.662Z,1000.27
2018-06-05T07:57:16.672Z,1000.29
2018-06-05T07:58:16.686Z,1000.31
2018-06-05T07:59:16.728Z,1000.28
2018-06-05T08:00:16.734Z,1000.34
2018-06-05T08:01:16.752Z,1000.32
2018-06-05T08:02:16.780Z,1000.35
2018-06-05T08:03:16.796Z,1000.36
2018-06-05T08:04:16.831Z,1000.34
2018-06-05T08:05:16.852Z,1000.34
2018-06-05T08:06:16.862Z,1000.30
2018-06-05T08:07:16.882Z,1000.31
2018-06-05T08:08:16.903Z,1000.30
2018-06-05T08:09:16.925Z,1000.30
2018-06-05T08:10:16.943Z,1000.31
2018-06-05T08:11:16.975Z,1000.30
2018-06-05T08:12:16.985Z,1000.33
2018-06-05T08:13:17.013Z,1000.31
2018-06-05T08:14:17.026Z,1000.34
2018-06-05T08:15:17.071Z,1000.35
2018-06-05T08:16:17.080Z,1000.34
2018-06-05T08:17:17.101Z,1000.35
2018-06-05T08:18:17.114Z,1000.35
2018-06-05T08:19:17.148Z,1000.34
2018-06-05T08:20:17.163Z,1000.36
2018-06-05T08:21:17.179Z,1000.39
2018-06-05T08:22:17.207Z,1000.37
2018-06-05T08:23:17.245Z,1000.37
2018-06-05T08:24:17.259Z,1000.41
2018-06-05T08:25:17.262Z,1000.40
2018-06-05T08:26:17.283Z,1000.41
2018-06-05T08:27:17.315Z,1000.41
2018-06-05T08:28:17.329Z,1000.38
2018-06-05T08:29:17.356Z,1000.38
2018-06-05T08:30:17.384Z,1000.38
2018-06-05T08:31:17.400Z,1000.39
2018-06-05T08:32:17.429Z,1000.40
2018-06-05T08:33:17.438Z,1000.45
2018-06-05T08:34:17.462Z,1000.42
2018-06-05T08:35:17.476Z,1000.43
2018-06-05T08:36:17.514Z,1000.46
2018-06-05T08:37:17.517Z,1000.46
2018-06-05T08:38:17.548Z,1000.42
2018-06-05T08:39:17.561Z,1000.44
2018-06-05T08:40:17.589Z,1000.45
2018-06-05T08:41:17.615Z,1000.48
2018-06-05T08:42:17.629Z,1000.50
2018-06-05T08:43:17.647Z,1000.49
2018-06-05T08:44:17.670Z,1000.57
2018-06-05T08:45:17.761Z,1000.55
2018-06-05T08:46:17.720Z,1000.52
2018-06-05T08:47:17.751Z,1000.52
2018-06-05T08:48:17.760Z,1000.53
2018-06-05T08:49:17.785Z,1000.54
2018-06-05T08:50:17.793Z,1000.58
2018-06-05T08:51:17.837Z,1000.56
2018-06-05T08:52:17.847Z,1000.55
2018-06-05T08:53:17.868Z,1000.54
2018-06-05T08:54:17.918Z,1000.56
2018-06-05T08:55:17.909Z,1000.56
2018-06-05T08:56:17.938Z,1000.57
2018-06-05T08:57:17.971Z,1000.58
2018-06-05T08:58:17.978Z,1000.58
2018-06-05T08:59:18.005Z,1000.58
2018-06-05T09:00:18.026Z,1000.58
2018-06-05T09:01:18.050Z,1000.61
2018-06-05T09:02:18.056Z,1000.62
2018-06-05T09:03:18.102Z,1000.62
2018-06-05T09:04:18.118Z,1000.63
2018-06-05T09:05:18.184Z,1000.63
2018-06-05T09:06:18.149Z,1000.66
2018-06-05T09:07:18.189Z,1000.65
2018-06-05T09:08:18.196Z,1000.67
2018-06-05T09:09:18.214Z,1000.73
2018-06-05T09:10:18.235Z,1000.68
2018-06-05T09:11:18.267Z,1000.68
2018-06-05T09:12:18.287Z,1000.69
2018-06-05T09:13:18.305Z,1000.73
2018-06-05T09:14:18.332Z,1000.70
2018-06-05T09:15:18.347Z,1000.68
2018-06-05T09:16:18.368Z,1000.71
2018-06-05T09:17:18.391Z,1000.67
2018-06-05T09:18:18.416Z,1000.70
2018-06-05T09:19:18.439Z,1000.72
2018-06-05T09:20:18.456Z,1000.74
2018-06-05T09:21:18.481Z,1000.73
2018-06-05T09:22:18.503Z,1000.74
2018-06-05T09:23:18.526Z,1000.75
2018-06-05T09:24:18.535Z,1000.73
2018-06-05T09:25:18.560Z,1000.75
2018-06-05T09:26:18.579Z,1000.77
2018-06-05T09:27:18.603Z,1000.78
2018-06-05T09:28:18.650Z,1000.78
2018-06-05T09:29:18.660Z,1000.75
2018-06-05T09:30:18.702Z,1000.80
2018-06-05T09:31:18.699Z,1000.78
2018-06-05T09:32:18.714Z,1000.79
2018-06-05T09:33:18.743Z,1000.83
2018-06-05T09:34:18.805Z,1000.84
2018-06-05T09:35:18.808Z,1000.83
2018-06-05T09:36:18.835Z,1000.82
2018-06-05T09:37:18.842Z,1000.86
2018-06-05T09:38:18.852Z,1000.88
2018-06-05T09:39:18.880Z,1000.86
2018-06-05T09:40:18.892Z,1000.87
2018-06-05T09:41:18.924Z,1000.89
2018-06-05T09:42:18.961Z,1000.92
2018-06-05T09:43:18.971Z,1000.90
2018-06-05T09:44:18.980Z,1000.91
2018-06-05T09:45:19.055Z,1000.87
2018-06-05T09:46:19.021Z,1000.90
2018-06-05T09:47:19.061Z,1000.89
2018-06-05T09:48:19.090Z,1000.91
2018-06-05T09:49:19.111Z,1000.94
2018-06-05T09:50:19.119Z,1000.92
2018-06-05T09:51:19.136Z,1000.92
2018-06-05T09:52:19.170Z,1000.89
2018-06-05T09:53:19.182Z,1000.91
2018-06-05T09:54:19.210Z,1000.94
2018-06-05T09:55:19.237Z,1000.96
2018-06-05T09:56:19.257Z,1000.97
2018-06-05T09:57:19.276Z,1001.04
2018-06-05T09:58:19.395Z,1001.04
2018-06-05T09:59:19.346Z,1000.98
2018-06-05T10:00:19.359Z,1001.00
2018-06-05T10:01:19.356Z,1000.97
2018-06-05T10:02:19.378Z,1000.98
2018-06-05T10:03:19.439Z,1000.97
2018-06-05T10:04:19.460Z,1000.97
2018-06-05T10:05:19.465Z,1000.96
2018-06-05T10:06:19.506Z,1001.01
2018-06-05T10:07:19.498Z,1000.98
2018-06-05T10:08:19.531Z,1001.00
2018-06-05T10:09:19.551Z,1001.04
2018-06-05T10:10:19.575Z,1001.03
2018-06-05T10:11:19.585Z,1001.04
2018-06-05T10:12:19.615Z,1001.04
2018-06-05T10:13:19.648Z,1001.08
2018-06-05T10:14:19.666Z,1001.09
2018-06-05T10:15:19.676Z,1001.10
2018-06-05T10:16:19.741Z,1001.07
2018-06-05T10:17:19.737Z,1001.07
2018-06-05T10:18:19.765Z,1001.06
2018-06-05T10:19:19.771Z,1001.04
2018-06-05T10:20:19.825Z,1001.05
2018-06-05T10:21:19.825Z,1001.03
2018-06-05T10:22:19.859Z,1001.07
2018-06-05T10:23:19.868Z,1001.04
2018-06-05T10:24:19.899Z,1001.03
2018-06-05T10:25:19.908Z,1001.07
2018-06-05T10:26:19.931Z,1001.04
2018-06-05T10:27:19.966Z,1001.03
2018-06-05T10:28:19.991Z,1001.01
2018-06-05T10:29:20.020Z,1000.96
2018-06-05T10:30:20.032Z,1001.04
2018-06-05T10:31:20.063Z,1001.00
2018-06-05T10:32:20.095Z,1001.02
2018-06-05T10:33:20.107Z,1001.00
2018-06-05T10:34:20.129Z,1001.03
2018-06-05T10:35:20.153Z,1001.02
2018-06-05T10:36:20.172Z,1001.01
2018-06-05T10:37:20.211Z,1000.97
2018-06-05T10:38:20.217Z,1000.98
2018-06-05T10:39:20.232Z,1000.98
2018-06-05T10:40:20.256Z,1000.98
2018-06-05T10:41:20.309Z,1000.99
2018-06-05T10:42:20.328Z,1000.94
2018-06-05T10:43:20.326Z,1000.93
2018-06-05T10:44:20.357Z,1000.95
2018-06-05T10:45:20.389Z,1000.97
2018-06-05T10:46:20.414Z,1001.05
2018-06-05T10:47:20.427Z,1001.10
2018-06-05T10:48:20.487Z,1001.14
2018-06-05T10:49:20.472Z,1001.13
2018-06-05T10:50:20.497Z,1001.13
2018-06-05T10:51:20.521Z,1001.05
2018-06-05T10:52:20.541Z,1001.05
2018-06-05T10:53:20.558Z,1001.01
2018-06-05T10:54:20.588Z,1000.99
2018-06-05T10:55:20.622Z,1000.97
2018-06-05T10:56:20.647Z,1000.96
2018-06-05T10:57:20.677Z,1001.00
2018-06-05T10:58:20.675Z,1000.97
2018-06-05T10:59:20.725Z,1000.98
2018-06-05T11:00:20.760Z,1000.99
2018-06-05T11:01:20.768Z,1001.01
2018-06-05T11:02:20.776Z,1001.00
2018-06-05T11:03:20.793Z,1000.97
2018-06-05T11:04:20.839Z,1000.95
2018-06-05T11:05:20.848Z,1000.97
2018-06-05T11:06:20.868Z,1000.97
2018-06-05T11:07:20.896Z,1000.99
2018-06-05T11:08:20.912Z,1001.01
2018-06-05T11:09:20.940Z,1000.99
2018-06-05T11:10:20.967Z,1000.97
2018-06-05T11:11:20.984Z,1001.02
2018-06-05T11:12:21.018Z,1001.04
2018-06-05T11:13:21.045Z,1001.08
2018-06-05T11:14:21.059Z,1001.09
2018-06-05T11:15:21.096Z,1001.08
2018-06-05T11:16:21.121Z,1001.13
2018-06-05T11:17:21.127Z,1001.12
2018-06-05T11:18:21.199Z,1001.13
2018-06-05T11:19:21.177Z,1001.14
2018-06-05T11:20:21.196Z,1001.20
2018-06-05T11:21:21.220Z,1001.19
2018-06-05T11:22:21.248Z,1001.16
2018-06-05T11:23:21.280Z,1001.18
2018-06-05T11:24:21.303Z,1001.14
2018-06-05T11:25:21.336Z,1001.11
2018-06-05T11:26:21.335Z,1001.10
2018-06-05T11:27:21.370Z,1001.10
2018-06-05T11:28:21.412Z,1001.15
2018-06-05T11:29:21.409Z,1001.11
2018-06-05T11:30:21.452Z,1001.05
2018-06-05T11:31:21.461Z,1001.01
2018-06-05T11:32:21.493Z,1001.00
2018-06-05T11:33:21.507Z,1000.99
2018-06-05T11:34:21.539Z,1000.98
2018-06-05T11:35:21.557Z,1001.02
2018-06-05T11:36:21.591Z,1000.99
2018-06-05T11:37:21.615Z,1000.91
2018-06-05T11:38:21.630Z,1000.94
2018-06-05T11:39:21.674Z,1000.96
2018-06-05T11:40:21.682Z,1000.95
2018-06-05T11:41:21.700Z,1000.91
2018-06-05T11:42:21.725Z,1000.91
2018-06-05T11:43:21.751Z,1000.91
2018-06-05T11:44:21.774Z,1000.93
2018-06-05T11:45:21.791Z,1000.89
2018-06-05T11:46:21.818Z,1000.84
2018-06-05T11:47:21.848Z,1000.86
2018-06-05T11:48:21.885Z,1000.87
2018-06-05T11:49:21.895Z,1000.83
2018-06-05T11:50:21.922Z,1000.87
2018-06-05T11:51:21.936Z,1000.79
2018-06-05T11:52:21.969Z,1000.81
2018-06-05T11:53:21.984Z,1000.78
2018-06-05T11:54:22.005Z,1000.78
2018-06-05T11:55:22.053Z,1000.70
2018-06-05T11:56:22.053Z,1000.70
2018-06-05T11:57:22.077Z,1000.67
2018-06-05T11:58:22.103Z,1000.70
2018-06-05T11:59:22.159Z,1000.80
2018-06-05T12:00:22.151Z,1000.88
2018-06-05T12:01:22.175Z,1000.81
2018-06-05T12:02:22.207Z,1000.75
2018-06-05T12:03:22.231Z,1000.71
2018-06-05T12:04:22.247Z,1000.65
2018-06-05T12:05:22.271Z,1000.60
2018-06-05T12:06:22.292Z,1000.66
2018-06-05T12:07:22.319Z,1000.57
2018-06-05T12:08:22.348Z,1000.59
2018-06-05T12:09:22.374Z,1000.59
2018-06-05T12:10:22.420Z,1000.52
2018-06-05T12:11:22.430Z,1000.55
2018-06-05T12:12:22.452Z,1000.55
2018-06-05T12:13:22.471Z,1000.52
2018-06-05T12:14:22.498Z,1000.51
2018-06-05T12:15:22.536Z,1000.45
2018-06-05T12:16:22.542Z,1000.50
2018-06-05T12:17:22.569Z,1000.47
2018-06-05T12:18:22.597Z,1000.48